createdAt,value
2022-07-26T00:01:19.075Z,40.43
2022-07-26T00:03:48.113Z,40.08
2022-07-26T00:06:16.396Z,39.64
2022-07-26T00:08:47.380Z,40.18
2022-07-26T00:11:15.305Z,39.97
2022-07-26T00:13:42.730Z,40.00
2022-07-26T00:16:10.621Z,39.83
2022-07-26T00:18:38.318Z,40.25
2022-07-26T00:21:05.971Z,40.50
2022-07-26T00:23:35.058Z,40.80
2022-07-26T00:26:02.466Z,41.33
2022-07-26T00:28:29.931Z,40.97
2022-07-26T00:30:57.647Z,41.33
2022-07-26T00:33:25.128Z,41.20
2022-07-26T00:35:52.510Z,40.67
2022-07-26T00:38:20.188Z,40.95
2022-07-26T00:40:47.667Z,41.52
2022-07-26T00:43:15.063Z,40.98
2022-07-26T00:45:43.027Z,41.24
2022-07-26T00:48:10.648Z,41.20
2022-07-26T00:50:38.121Z,41.32
2022-07-26T00:53:05.825Z,41.83
2022-07-26T00:55:33.237Z,42.17
2022-07-26T00:58:03.782Z,41.83
2022-07-26T01:00:31.496Z,42.86
2022-07-26T01:03:00.578Z,41.80
2022-07-26T01:05:28.356Z,41.99
2022-07-26T01:07:56.527Z,42.28
2022-07-26T01:10:23.994Z,41.26
2022-07-26T01:12:51.429Z,42.43
2022-07-26T01:15:19.513Z,42.44
2022-07-26T01:17:47.456Z,42.67
2022-07-26T01:20:14.991Z,43.20
2022-07-26T01:22:42.709Z,43.11
2022-07-26T01:25:10.401Z,42.67
2022-07-26T01:27:40.588Z,41.87
2022-07-26T01:30:10.492Z,41.89
2022-07-26T01:32:38.006Z,42.41
2022-07-26T01:35:07.190Z,42.56
2022-07-26T01:37:34.838Z,42.72
2022-07-26T01:40:02.623Z,42.79
2022-07-26T01:42:30.021Z,42.92
2022-07-26T01:44:57.757Z,42.86
2022-07-26T01:47:25.152Z,42.88
2022-07-26T01:49:52.547Z,43.20
2022-07-26T01:52:20.206Z,43.67
2022-07-26T01:54:47.702Z,43.07
2022-07-26T01:57:15.117Z,43.40
2022-07-26T01:59:42.885Z,43.20
2022-07-26T02:02:10.659Z,42.92
2022-07-26T02:04:57.385Z,43.07
2022-07-26T02:07:28.867Z,42.60
2022-07-26T02:09:57.179Z,42.20
2022-07-26T02:12:25.570Z,43.22
2022-07-26T02:14:52.960Z,43.17
2022-07-26T02:17:20.630Z,43.64
2022-07-26T02:19:48.067Z,43.13
2022-07-26T02:22:15.478Z,44.04
2022-07-26T02:24:43.249Z,44.59
2022-07-26T02:27:11.126Z,43.90
2022-07-26T02:29:38.737Z,43.91
2022-07-26T02:32:06.872Z,43.92
2022-07-26T02:34:34.392Z,43.54
2022-07-26T02:37:01.803Z,43.83
2022-07-26T02:39:29.789Z,43.20
2022-07-26T02:41:58.941Z,43.75
2022-07-26T02:44:27.156Z,44.58
2022-07-26T02:46:55.060Z,44.70
2022-07-26T02:49:22.811Z,44.59
2022-07-26T02:51:50.200Z,44.34
2022-07-26T02:54:17.920Z,44.00
2022-07-26T02:56:45.299Z,43.74
2022-07-26T02:59:12.769Z,44.08
2022-07-26T03:01:40.604Z,44.33
2022-07-26T03:04:08.369Z,44.33
2022-07-26T03:06:36.023Z,44.92
2022-07-26T03:09:03.988Z,44.64
2022-07-26T03:11:31.452Z,45.21
2022-07-26T03:13:58.860Z,44.91
2022-07-26T03:16:29.631Z,44.57
2022-07-26T03:18:57.784Z,44.80
2022-07-26T03:21:25.200Z,44.36
2022-07-26T03:23:53.532Z,45.18
2022-07-26T03:26:21.087Z,45.97
2022-07-26T03:28:48.502Z,45.54
2022-07-26T03:31:16.219Z,46.02
2022-07-26T03:33:43.646Z,45.29
2022-07-26T03:36:11.552Z,44.95
2022-07-26T03:38:43.205Z,44.61
2022-07-26T03:41:13.503Z,44.65
2022-07-26T03:43:41.369Z,44.61
2022-07-26T03:46:09.207Z,45.14
2022-07-26T03:48:36.843Z,44.77
2022-07-26T03:51:06.659Z,44.44
2022-07-26T03:53:34.637Z,44.68
2022-07-26T03:56:21.338Z,45.02
2022-07-26T03:58:49.074Z,44.73
2022-07-26T04:01:16.519Z,44.54
2022-07-26T04:03:47.519Z,45.24
2022-07-26T04:06:15.372Z,44.43
2022-07-26T04:08:43.105Z,45.18
2022-07-26T04:11:11.048Z,45.69
2022-07-26T04:13:38.450Z,45.19
2022-07-26T04:16:06.653Z,45.78
2022-07-26T04:18:34.788Z,44.33
2022-07-26T04:21:02.289Z,44.49
2022-07-26T04:23:29.764Z,43.25
2022-07-26T04:25:57.453Z,42.77
2022-07-26T04:28:28.792Z,43.02
2022-07-26T04:30:57.695Z,41.73
2022-07-26T04:33:25.749Z,41.60
2022-07-26T04:35:53.546Z,42.46
2022-07-26T04:38:20.934Z,40.90
2022-07-26T04:40:50.487Z,41.09
2022-07-26T04:43:18.445Z,41.10
2022-07-26T04:45:46.419Z,40.70
2022-07-26T04:48:15.181Z,41.98
2022-07-26T04:50:43.661Z,40.71
2022-07-26T04:53:11.282Z,40.62
2022-07-26T04:55:39.524Z,40.75
2022-07-26T04:58:07.043Z,40.64
2022-07-26T05:00:51.081Z,41.17
2022-07-26T05:03:25.066Z,41.52
2022-07-26T05:05:52.729Z,42.11
2022-07-26T05:08:20.386Z,41.16
2022-07-26T05:10:53.131Z,37.84
2022-07-26T05:13:25.246Z,38.95
2022-07-26T05:15:59.737Z,38.27
2022-07-26T05:18:27.662Z,41.74
2022-07-26T05:20:57.719Z,38.69
2022-07-26T05:23:25.162Z,37.51
2022-07-26T05:25:52.560Z,36.02
2022-07-26T05:28:20.225Z,36.12
2022-07-26T05:30:47.692Z,36.89
2022-07-26T05:33:16.704Z,35.88
2022-07-26T05:35:44.566Z,37.50
2022-07-26T05:38:11.962Z,36.70
2022-07-26T05:40:39.367Z,37.38
2022-07-26T05:43:07.453Z,34.61
2022-07-26T05:45:34.889Z,34.11
2022-07-26T05:48:02.355Z,34.25
2022-07-26T05:50:30.115Z,33.89
2022-07-26T05:52:57.503Z,33.40
2022-07-26T05:55:24.891Z,34.28
2022-07-26T05:57:52.647Z,34.62
2022-07-26T06:00:20.912Z,34.07
2022-07-26T06:02:48.676Z,36.37
2022-07-26T06:05:16.245Z,35.61
2022-07-26T06:07:43.646Z,34.86
2022-07-26T06:10:11.341Z,34.62
2022-07-26T06:12:38.799Z,35.93
2022-07-26T06:15:15.612Z,35.78
2022-07-26T06:17:43.657Z,36.12
2022-07-26T06:20:11.476Z,36.99
2022-07-26T06:22:38.903Z,37.83
2022-07-26T06:25:06.969Z,38.61
2022-07-26T06:27:34.419Z,38.99
2022-07-26T06:30:01.897Z,37.99
2022-07-26T06:32:29.571Z,39.37
2022-07-26T06:34:56.989Z,38.61
2022-07-26T06:37:24.402Z,39.92
2022-07-26T06:39:52.630Z,39.16
2022-07-26T06:42:20.202Z,38.88
2022-07-26T06:44:47.602Z,38.56
2022-07-26T06:47:15.327Z,38.38
2022-07-26T06:49:44.803Z,39.47
2022-07-26T06:52:12.401Z,37.16
2022-07-26T06:54:40.073Z,37.39
2022-07-26T06:57:08.151Z,36.52
2022-07-26T06:59:36.124Z,36.74
2022-07-26T07:02:04.680Z,36.69
2022-07-26T07:04:34.286Z,35.77
2022-07-26T07:07:08.518Z,35.34
2022-07-26T07:09:37.601Z,36.45
2022-07-26T07:12:10.093Z,37.16
2022-07-26T07:14:39.148Z,36.79
2022-07-26T07:17:10.542Z,36.08
2022-07-26T07:19:40.854Z,35.54
2022-07-26T07:22:11.861Z,35.19
2022-07-26T07:24:40.765Z,33.83
2022-07-26T07:27:09.116Z,33.02
2022-07-26T07:29:38.764Z,33.58
2022-07-26T07:32:18.153Z,35.65
2022-07-26T07:34:47.937Z,34.52
2022-07-26T07:37:16.815Z,34.71
2022-07-26T07:39:44.347Z,35.72
2022-07-26T07:42:19.500Z,36.59
2022-07-26T07:44:47.440Z,37.93
2022-07-26T07:47:14.965Z,38.92
2022-07-26T07:49:43.038Z,39.86
2022-07-26T07:52:10.465Z,39.75
2022-07-26T07:54:37.858Z,40.35
2022-07-26T07:57:05.615Z,40.81
2022-07-26T07:59:33.004Z,41.44
2022-07-26T08:02:06.449Z,40.89
2022-07-26T08:04:34.171Z,42.17
2022-07-26T08:07:01.669Z,40.79
2022-07-26T08:09:29.102Z,41.19
2022-07-26T08:11:56.750Z,42.05
2022-07-26T08:14:24.332Z,41.97
2022-07-26T08:16:52.312Z,42.83
2022-07-26T08:19:20.055Z,42.57
2022-07-26T08:21:50.024Z,42.86
2022-07-26T08:24:17.756Z,44.08
2022-07-26T08:26:45.569Z,43.67
2022-07-26T08:29:13.283Z,44.06
2022-07-26T08:31:40.916Z,41.24
2022-07-26T08:34:08.659Z,41.55
2022-07-26T08:36:36.045Z,41.90
2022-07-26T08:39:03.866Z,41.37
2022-07-26T08:41:31.582Z,40.51
2022-07-26T08:44:09.664Z,41.35
2022-07-26T08:46:39.323Z,40.72
2022-07-26T08:49:08.618Z,40.85
2022-07-26T08:51:43.201Z,41.29
2022-07-26T08:54:14.341Z,42.88
2022-07-26T08:56:50.403Z,41.22
2022-07-26T08:59:21.174Z,40.39
2022-07-26T09:01:57.282Z,42.00
2022-07-26T09:04:32.690Z,42.74
2022-07-26T09:07:03.360Z,42.53
2022-07-26T09:09:35.681Z,41.53
2022-07-26T09:12:20.250Z,40.16
2022-07-26T09:14:48.407Z,40.69
2022-07-26T09:17:20.955Z,42.46
2022-07-26T09:20:11.730Z,41.77
2022-07-26T09:22:56.632Z,41.66
2022-07-26T09:25:25.143Z,43.06
2022-07-26T09:27:52.918Z,43.07
2022-07-26T09:30:20.881Z,43.77
2022-07-26T09:33:06.437Z,42.98
2022-07-26T09:35:50.393Z,43.27
2022-07-26T09:38:19.877Z,44.31
2022-07-26T09:40:50.706Z,44.40
2022-07-26T09:43:24.163Z,45.11
2022-07-26T09:46:07.157Z,44.63
2022-07-26T09:49:07.098Z,47.98
2022-07-26T09:51:41.502Z,51.42
2022-07-26T09:54:17.169Z,54.66
2022-07-26T09:56:51.273Z,55.31
2022-07-26T09:59:21.595Z,56.74
2022-07-26T10:01:50.715Z,56.88
2022-07-26T10:04:18.974Z,60.24
2022-07-26T10:06:46.706Z,62.38
2022-07-26T10:09:37.645Z,63.83
2022-07-26T10:12:09.466Z,64.82
2022-07-26T10:14:38.153Z,69.47
2022-07-26T10:17:34.955Z,68.34
2022-07-26T10:20:16.856Z,68.53
2022-07-26T10:22:52.476Z,69.93
2022-07-26T10:25:20.110Z,70.56
2022-07-26T10:27:52.556Z,70.43
2022-07-26T10:30:24.016Z,71.58
2022-07-26T10:32:51.796Z,70.25
2022-07-26T10:35:34.543Z,73.44
2022-07-26T10:38:08.055Z,71.28
2022-07-26T10:40:36.883Z,72.76
2022-07-26T10:46:13.418Z,71.25
2022-07-26T10:49:04.074Z,74.06
2022-07-26T10:51:40.337Z,74.82
2022-07-26T10:54:13.883Z,74.57
2022-07-26T10:56:41.652Z,75.17
2022-07-26T10:59:09.622Z,75.26
2022-07-26T11:01:39.436Z,73.92
2022-07-26T11:04:19.798Z,71.82
2022-07-26T11:06:47.650Z,71.83
2022-07-26T11:09:16.090Z,71.89
2022-07-26T11:11:47.045Z,72.27
2022-07-26T11:14:17.906Z,70.61
2022-07-26T11:16:48.014Z,71.54
2022-07-26T11:19:20.743Z,72.61
2022-07-26T11:21:56.129Z,72.03
2022-07-26T11:24:24.069Z,71.37
2022-07-26T11:26:51.478Z,70.61
2022-07-26T11:29:37.970Z,70.61
2022-07-26T11:32:19.059Z,70.30
2022-07-26T11:34:47.886Z,68.61
2022-07-26T11:37:16.032Z,69.62
2022-07-26T11:39:43.492Z,69.91
2022-07-26T11:42:19.694Z,69.80
2022-07-26T11:44:49.017Z,70.07
2022-07-26T11:47:20.175Z,69.12
2022-07-26T11:50:00.208Z,71.01
2022-07-26T11:52:36.963Z,68.23
2022-07-26T11:55:05.035Z,67.53
2022-07-26T11:57:32.915Z,67.42
2022-07-26T12:00:01.035Z,67.53
2022-07-26T12:02:39.055Z,67.55
2022-07-26T12:05:28.388Z,68.35
2022-07-26T12:08:00.603Z,67.07
2022-07-26T12:10:28.632Z,67.57
2022-07-26T12:13:15.930Z,66.13
2022-07-26T12:15:49.235Z,68.22
2022-07-26T12:18:24.736Z,68.35
2022-07-26T12:21:07.117Z,67.18
2022-07-26T12:23:49.411Z,69.10
2022-07-26T12:26:22.066Z,66.67
2022-07-26T12:28:49.494Z,65.98
2022-07-26T12:31:27.098Z,66.51
2022-07-26T12:33:54.793Z,65.32
2022-07-26T12:36:27.861Z,65.74
2022-07-26T12:39:00.401Z,66.38
2022-07-26T12:41:35.776Z,65.99
2022-07-26T12:44:04.214Z,64.31
2022-07-26T12:46:36.039Z,65.80
2022-07-26T12:49:04.272Z,64.97
2022-07-26T12:51:32.180Z,67.20
2022-07-26T12:53:59.655Z,66.02
2022-07-26T12:56:27.092Z,65.71
2022-07-26T12:59:01.118Z,66.00
2022-07-26T13:01:29.840Z,66.38
2022-07-26T13:03:57.774Z,65.69
2022-07-26T13:06:25.261Z,66.57
2022-07-26T13:08:52.663Z,65.74
2022-07-26T13:11:20.316Z,63.81
2022-07-26T13:13:47.791Z,63.97
2022-07-26T13:16:15.309Z,63.27
2022-07-26T13:18:42.954Z,63.13
2022-07-26T13:21:11.286Z,61.51
2022-07-26T13:23:39.650Z,60.23
2022-07-26T13:26:09.340Z,62.70
2022-07-26T13:28:37.782Z,61.42
2022-07-26T13:31:06.027Z,60.88
2022-07-26T13:33:33.787Z,60.79
2022-07-26T13:36:01.187Z,60.96
2022-07-26T13:38:31.312Z,58.55
2022-07-26T13:40:59.865Z,59.29
2022-07-26T13:43:27.334Z,58.85
2022-07-26T13:45:54.808Z,57.70
2022-07-26T13:48:22.498Z,56.23
2022-07-26T13:50:49.945Z,55.77
2022-07-26T13:53:17.324Z,56.33
2022-07-26T13:55:44.954Z,55.94
2022-07-26T13:58:12.408Z,56.36
2022-07-26T14:00:40.732Z,55.27
2022-07-26T14:03:08.666Z,55.85
2022-07-26T14:05:36.116Z,54.90
2022-07-26T14:08:03.651Z,55.13
2022-07-26T14:10:31.363Z,55.39
2022-07-26T14:12:59.153Z,54.74
2022-07-26T14:15:26.558Z,52.63
2022-07-26T14:17:54.294Z,53.46
2022-07-26T14:20:21.918Z,55.42
2022-07-26T14:22:53.567Z,56.71
2022-07-26T14:25:25.460Z,55.12
2022-07-26T14:27:54.049Z,54.72
2022-07-26T14:30:22.663Z,53.60
2022-07-26T14:32:50.184Z,55.68
2022-07-26T14:35:18.012Z,54.30
2022-07-26T14:37:46.211Z,54.73
2022-07-26T14:40:15.394Z,56.04
2022-07-26T14:42:43.424Z,56.26
2022-07-26T14:45:11.582Z,54.28
2022-07-26T14:47:41.616Z,54.65
2022-07-26T14:50:10.424Z,55.38
2022-07-26T14:52:43.197Z,56.22
2022-07-26T14:55:10.945Z,55.72
2022-07-26T14:57:40.046Z,54.82
2022-07-26T15:00:10.155Z,53.75
2022-07-26T15:02:45.210Z,55.24
2022-07-26T15:05:14.259Z,54.79
2022-07-26T15:07:42.400Z,56.25
2022-07-26T15:10:12.876Z,54.26
2022-07-26T15:12:41.228Z,54.86
2022-07-26T15:15:09.890Z,55.00
2022-07-26T15:17:37.675Z,55.71
2022-07-26T15:20:06.088Z,55.76
2022-07-26T15:22:33.413Z,54.59
2022-07-26T15:25:00.810Z,56.11
2022-07-26T15:27:28.925Z,55.90
2022-07-26T15:30:02.620Z,55.01
2022-07-26T15:32:31.737Z,54.56
2022-07-26T15:34:59.236Z,54.26
2022-07-26T15:37:26.802Z,56.21
2022-07-26T15:39:54.546Z,54.86
2022-07-26T15:42:23.293Z,56.07
2022-07-26T15:44:51.065Z,55.83
2022-07-26T15:47:43.511Z,55.69
2022-07-26T15:50:08.248Z,55.28
2022-07-26T15:52:40.541Z,55.50
2022-07-26T15:55:09.217Z,54.28
2022-07-26T15:57:36.896Z,53.04
2022-07-26T16:00:11.698Z,54.30
2022-07-26T16:02:40.509Z,54.27
2022-07-26T16:05:08.927Z,55.08
2022-07-26T16:07:36.381Z,53.95
2022-07-26T16:10:05.237Z,53.45
2022-07-26T16:12:33.558Z,54.21
2022-07-26T16:15:01.154Z,55.20
2022-07-26T16:17:28.974Z,53.92
2022-07-26T16:19:56.696Z,53.47
2022-07-26T16:22:24.463Z,53.28
2022-07-26T16:24:52.167Z,53.17
2022-07-26T16:27:19.565Z,52.50
2022-07-26T16:29:51.831Z,51.67
2022-07-26T16:32:21.352Z,53.15
2022-07-26T16:34:49.133Z,53.01
2022-07-26T16:37:16.553Z,53.23
2022-07-26T16:40:03.596Z,53.34
2022-07-26T16:42:31.073Z,52.43
2022-07-26T16:44:58.777Z,52.41
2022-07-26T16:47:26.474Z,53.12
2022-07-26T16:49:53.955Z,52.96
2022-07-26T16:52:22.864Z,52.66
2022-07-26T16:54:50.294Z,52.81
2022-07-26T16:57:17.674Z,52.31
2022-07-26T16:59:45.306Z,52.50
2022-07-26T17:02:12.836Z,52.17
2022-07-26T17:04:40.348Z,53.11
2022-07-26T17:07:24.441Z,52.10
2022-07-26T17:09:53.079Z,52.14
2022-07-26T17:12:21.138Z,51.25
2022-07-26T17:14:48.605Z,51.86
2022-07-26T17:17:16.074Z,52.46
2022-07-26T17:19:43.736Z,51.40
2022-07-26T17:22:11.133Z,51.66
2022-07-26T17:24:38.567Z,52.12
2022-07-26T17:27:06.400Z,52.51
2022-07-26T17:29:33.831Z,52.08
2022-07-26T17:32:01.276Z,51.43
2022-07-26T17:34:29.072Z,51.61
2022-07-26T17:36:58.513Z,51.65
2022-07-26T17:39:34.132Z,51.34
2022-07-26T17:42:15.617Z,51.44
2022-07-26T17:44:42.995Z,51.32
2022-07-26T17:47:18.231Z,50.61
2022-07-26T17:50:19.491Z,51.49
2022-07-26T17:52:50.476Z,50.72
2022-07-26T17:55:20.937Z,51.40
2022-07-26T17:57:49.943Z,50.49
2022-07-26T18:00:19.415Z,50.86
2022-07-26T18:02:47.574Z,51.63
2022-07-26T18:05:15.122Z,50.94
2022-07-26T18:07:42.562Z,50.79
2022-07-26T18:10:11.235Z,50.74
2022-07-26T18:12:39.251Z,50.60
2022-07-26T18:15:07.651Z,50.75
2022-07-26T18:17:35.323Z,51.23
2022-07-26T18:20:02.895Z,51.76
2022-07-26T18:22:30.306Z,52.40
2022-07-26T18:24:58.018Z,52.87
2022-07-26T18:27:28.413Z,53.14
2022-07-26T18:29:56.655Z,52.80
2022-07-26T18:32:24.838Z,51.78
2022-07-26T18:34:53.368Z,52.73
2022-07-26T18:37:23.692Z,52.63
2022-07-26T18:39:57.052Z,53.66
2022-07-26T18:42:25.902Z,54.65
2022-07-26T18:44:53.566Z,53.98
2022-07-26T18:47:21.185Z,54.06
2022-07-26T18:49:48.731Z,55.39
2022-07-26T18:52:17.932Z,53.38
2022-07-26T18:54:56.411Z,55.46
2022-07-26T18:57:24.305Z,54.49
2022-07-26T18:59:51.723Z,54.41
2022-07-26T19:02:19.109Z,55.17
2022-07-26T19:04:46.767Z,54.91
2022-07-26T19:07:14.171Z,55.32
2022-07-26T19:09:41.560Z,55.23
2022-07-26T19:12:09.288Z,54.40
2022-07-26T19:14:36.716Z,55.67
2022-07-26T19:17:05.894Z,56.19
2022-07-26T19:19:33.552Z,55.69
2022-07-26T19:22:00.926Z,56.54
2022-07-26T19:24:41.763Z,56.07
2022-07-26T19:27:09.656Z,56.04
2022-07-26T19:29:37.725Z,56.21
2022-07-26T19:32:05.410Z,56.36
2022-07-26T19:34:33.140Z,56.04
2022-07-26T19:37:00.527Z,57.38
2022-07-26T19:39:28.027Z,56.65
2022-07-26T19:41:55.753Z,57.09
2022-07-26T19:44:23.180Z,57.10
2022-07-26T19:46:55.519Z,56.70
2022-07-26T19:49:25.285Z,57.04
2022-07-26T19:51:52.807Z,56.74
2022-07-26T19:54:21.329Z,57.05
2022-07-26T19:56:49.102Z,57.81
2022-07-26T19:59:22.703Z,56.70
2022-07-26T20:01:52.975Z,57.36
2022-07-26T20:04:21.597Z,57.28
2022-07-26T20:06:49.831Z,55.90
2022-07-26T20:09:17.230Z,56.96
2022-07-26T20:11:50.689Z,58.51
2022-07-26T20:14:19.471Z,57.92
2022-07-26T20:16:50.427Z,57.92
2022-07-26T20:19:20.313Z,58.16
2022-07-26T20:21:48.035Z,57.08
2022-07-26T20:24:15.445Z,58.43
2022-07-26T20:26:42.927Z,57.86
2022-07-26T20:29:11.588Z,57.92
2022-07-26T20:31:39.249Z,59.66
2022-07-26T20:34:06.665Z,58.92
2022-07-26T20:36:34.325Z,59.53
2022-07-26T20:39:02.287Z,59.16
2022-07-26T20:41:33.979Z,59.15
2022-07-26T20:44:01.872Z,60.98
2022-07-26T20:46:29.338Z,61.43
2022-07-26T20:48:57.270Z,61.08
2022-07-26T20:51:25.430Z,61.98
2022-07-26T20:53:52.848Z,60.87
2022-07-26T20:56:20.253Z,60.41
2022-07-26T20:58:47.972Z,61.29
2022-07-26T21:01:15.559Z,61.01
2022-07-26T21:03:43.125Z,61.05
2022-07-26T21:06:10.783Z,61.44
2022-07-26T21:08:38.182Z,61.28
2022-07-26T21:11:05.598Z,62.14
2022-07-26T21:13:34.280Z,62.28
2022-07-26T21:16:01.679Z,61.70
2022-07-26T21:18:30.016Z,63.27
2022-07-26T21:20:58.278Z,62.85
2022-07-26T21:23:25.782Z,61.32
2022-07-26T21:25:58.126Z,61.79
2022-07-26T21:28:28.894Z,61.58
2022-07-26T21:30:56.296Z,61.40
2022-07-26T21:33:24.856Z,60.23
2022-07-26T21:35:52.527Z,60.95
2022-07-26T21:38:19.924Z,60.83
2022-07-26T21:40:47.601Z,62.54
2022-07-26T21:43:15.252Z,61.92
2022-07-26T21:45:42.700Z,61.50
2022-07-26T21:48:10.134Z,62.09
2022-07-26T21:50:37.803Z,62.56
2022-07-26T21:53:05.202Z,62.88
2022-07-26T21:55:32.692Z,62.42
2022-07-26T21:58:00.352Z,62.41
2022-07-26T22:00:27.758Z,62.20
2022-07-26T22:02:55.563Z,61.34
2022-07-26T22:05:35.393Z,61.03
2022-07-26T22:08:10.440Z,60.78
2022-07-26T22:10:42.339Z,61.21
2022-07-26T22:13:13.749Z,60.45
2022-07-26T22:15:42.024Z,61.32
2022-07-26T22:18:09.934Z,62.44
2022-07-26T22:20:38.103Z,61.15
2022-07-26T22:23:08.422Z,61.47
2022-07-26T22:25:37.303Z,61.21
2022-07-26T22:28:06.561Z,61.05
2022-07-26T22:30:34.008Z,61.83
2022-07-26T22:33:02.723Z,61.04
2022-07-26T22:35:35.686Z,61.14
2022-07-26T22:38:06.252Z,61.09
2022-07-26T22:40:33.974Z,60.90
2022-07-26T22:43:01.356Z,61.39
2022-07-26T22:45:30.009Z,60.94
2022-07-26T22:47:58.111Z,61.57
2022-07-26T22:50:25.772Z,61.60
2022-07-26T22:52:53.274Z,61.16
2022-07-26T22:55:21.560Z,61.20
2022-07-26T22:57:49.348Z,60.79
2022-07-26T23:00:17.946Z,61.84
2022-07-26T23:02:46.006Z,61.13
2022-07-26T23:05:15.323Z,61.05
2022-07-26T23:07:47.149Z,61.85
2022-07-26T23:10:16.981Z,61.76
2022-07-26T23:12:44.583Z,62.19
2022-07-26T23:15:12.535Z,62.67
2022-07-26T23:17:40.334Z,63.13
2022-07-26T23:20:09.361Z,61.60
2022-07-26T23:22:38.319Z,60.55
2022-07-26T23:25:06.373Z,62.88
2022-07-26T23:27:33.820Z,60.93
2022-07-26T23:30:01.228Z,61.07
2022-07-26T23:32:28.985Z,62.98
2022-07-26T23:34:56.374Z,61.50
2022-07-26T23:37:23.762Z,61.25
2022-07-26T23:39:51.436Z,61.90
2022-07-26T23:42:18.803Z,62.68
2022-07-26T23:44:46.182Z,62.13
2022-07-26T23:47:13.934Z,62.51
2022-07-26T23:49:41.422Z,61.77
2022-07-26T23:52:08.822Z,61.49
2022-07-26T23:54:37.415Z,62.30
2022-07-26T23:57:04.804Z,61.96
2022-07-26T23:59:32.191Z,61.46
